createdAt,value
2023-01-11T00:00:29.140Z,93.15
2023-01-11T00:03:00.980Z,92.74
2023-01-11T00:05:27.518Z,93.47
2023-01-11T00:07:54.168Z,92.75
2023-01-11T00:10:20.865Z,93.95
2023-01-11T00:12:47.545Z,92.82
2023-01-11T00:15:14.679Z,93.67
2023-01-11T00:17:41.796Z,93.22
2023-01-11T00:20:10.448Z,92.81
2023-01-11T00:22:37.948Z,92.28
2023-01-11T00:25:05.431Z,92.43
2023-01-11T00:27:31.850Z,92.73
2023-01-11T00:29:58.228Z,93.38
2023-01-11T00:32:24.690Z,92.47
2023-01-11T00:34:51.043Z,92.82
2023-01-11T00:37:17.442Z,92.72
2023-01-11T00:39:43.811Z,92.89
2023-01-11T00:42:30.165Z,92.70
2023-01-11T00:45:15.420Z,91.78
2023-01-11T00:48:00.190Z,91.96
2023-01-11T00:50:37.816Z,91.62
2023-01-11T00:53:05.450Z,91.65
2023-01-11T00:55:32.454Z,91.83
2023-01-11T00:57:59.251Z,92.09
2023-01-11T01:00:25.773Z,92.85
2023-01-11T01:02:52.260Z,91.85
2023-01-11T01:05:19.069Z,91.78
2023-01-11T01:07:46.313Z,92.77
2023-01-11T01:10:15.609Z,91.49
2023-01-11T01:13:00.689Z,92.64
2023-01-11T01:15:27.503Z,91.48
2023-01-11T01:17:55.586Z,93.50
2023-01-11T01:20:23.343Z,92.13
2023-01-11T01:22:50.433Z,92.96
2023-01-11T01:25:17.300Z,92.47
2023-01-11T01:27:43.650Z,91.48
2023-01-11T01:30:10.566Z,91.34
2023-01-11T01:32:36.978Z,91.62
2023-01-11T01:35:03.534Z,92.41
2023-01-11T01:37:29.977Z,92.38
2023-01-11T01:39:56.368Z,92.16
2023-01-11T01:42:24.067Z,91.64
2023-01-11T01:45:00.911Z,93.15
2023-01-11T01:47:40.504Z,91.55
2023-01-11T01:50:12.864Z,92.06
2023-01-11T01:52:40.725Z,92.27
2023-01-11T01:55:12.175Z,92.79
2023-01-11T01:57:43.624Z,93.95
2023-01-11T02:00:10.889Z,92.85
2023-01-11T02:02:39.824Z,93.28
2023-01-11T02:05:08.103Z,93.57
2023-01-11T02:07:37.920Z,92.49
2023-01-11T02:10:15.707Z,93.82
2023-01-11T02:12:50.845Z,93.10
2023-01-11T02:15:19.590Z,93.51
2023-01-11T02:17:46.048Z,93.09
2023-01-11T02:20:28.269Z,93.23
2023-01-11T02:23:30.484Z,93.50
2023-01-11T02:26:15.891Z,93.46
2023-01-11T02:28:56.915Z,92.52
2023-01-11T02:31:49.749Z,90.93
2023-01-11T02:34:25.451Z,90.79
2023-01-11T02:37:38.352Z,91.02
2023-01-11T02:40:21.537Z,91.64
2023-01-11T02:43:12.040Z,92.06
2023-01-11T02:45:41.170Z,92.19
2023-01-11T02:48:13.488Z,93.05
2023-01-11T02:50:46.051Z,90.89
2023-01-11T02:53:31.031Z,92.56
2023-01-11T02:56:01.351Z,90.69
2023-01-11T02:58:32.828Z,91.96
2023-01-11T03:00:59.753Z,91.65
2023-01-11T03:03:29.662Z,92.14
2023-01-11T03:06:13.657Z,91.98
2023-01-11T03:09:05.115Z,92.83
2023-01-11T03:12:19.696Z,92.89
2023-01-11T03:15:12.527Z,92.15
2023-01-11T03:17:47.363Z,93.61
2023-01-11T03:20:30.662Z,93.98
2023-01-11T03:23:19.091Z,94.59
2023-01-11T03:26:02.004Z,94.69
2023-01-11T03:28:48.433Z,93.66
2023-01-11T03:31:26.136Z,94.76
2023-01-11T03:34:15.471Z,94.61
2023-01-11T03:36:56.836Z,94.59
2023-01-11T03:39:26.034Z,95.99
2023-01-11T03:41:57.227Z,95.14
2023-01-11T03:44:26.212Z,97.23
2023-01-11T03:47:02.177Z,96.17
2023-01-11T03:49:36.602Z,96.16
2023-01-11T03:52:07.145Z,96.84
2023-01-11T03:54:33.818Z,96.30
2023-01-11T03:57:08.622Z,97.68
2023-01-11T03:59:35.045Z,97.62
2023-01-11T04:02:02.255Z,97.73
2023-01-11T04:04:28.803Z,97.28
2023-01-11T04:06:55.374Z,96.73
2023-01-11T04:09:22.144Z,96.82
2023-01-11T04:11:48.646Z,96.43
2023-01-11T04:14:14.997Z,97.06
2023-01-11T04:16:41.435Z,96.01
2023-01-11T04:19:07.881Z,96.93
2023-01-11T04:21:34.294Z,98.03
2023-01-11T04:24:01.768Z,97.58
2023-01-11T04:26:28.112Z,97.59
2023-01-11T04:28:54.634Z,98.07
2023-01-11T04:31:21.164Z,96.90
2023-01-11T04:33:47.633Z,97.42
2023-01-11T04:36:14.412Z,96.74
2023-01-11T04:38:40.951Z,97.95
2023-01-11T04:41:26.269Z,98.27
2023-01-11T04:43:56.439Z,98.28
2023-01-11T04:46:23.877Z,99.02
2023-01-11T04:48:50.634Z,98.73
2023-01-11T04:51:17.380Z,97.12
2023-01-11T04:53:43.804Z,97.83
2023-01-11T04:56:12.043Z,98.38
2023-01-11T04:58:38.464Z,98.06
2023-01-11T05:01:14.271Z,99.22
2023-01-11T05:03:40.788Z,97.73
2023-01-11T05:06:07.710Z,98.60
2023-01-11T05:08:35.153Z,97.50
2023-01-11T05:11:04.972Z,98.17
2023-01-11T05:13:43.197Z,98.26
2023-01-11T05:16:23.894Z,97.83
2023-01-11T05:18:56.116Z,97.08
2023-01-11T05:21:24.720Z,97.31
2023-01-11T05:23:52.136Z,98.34
2023-01-11T05:26:24.521Z,97.40
2023-01-11T05:28:52.051Z,97.98
2023-01-11T05:31:19.093Z,98.26
2023-01-11T05:33:45.871Z,97.42
2023-01-11T05:36:14.601Z,97.69
2023-01-11T05:38:41.224Z,96.78
2023-01-11T05:41:09.716Z,98.18
2023-01-11T05:43:56.209Z,98.44
2023-01-11T05:46:23.360Z,98.48
2023-01-11T05:48:50.005Z,98.65
2023-01-11T05:51:17.873Z,97.51
2023-01-11T05:53:44.271Z,98.11
2023-01-11T05:56:10.788Z,98.19
2023-01-11T05:58:37.247Z,98.06
2023-01-11T06:01:03.941Z,97.47
2023-01-11T06:03:30.399Z,98.36
2023-01-11T06:05:59.083Z,99.04
2023-01-11T06:08:26.089Z,98.44
2023-01-11T06:10:56.573Z,98.18
2023-01-11T06:13:27.841Z,99.15
2023-01-11T06:16:09.869Z,98.87
2023-01-11T06:18:38.513Z,97.65
2023-01-11T06:21:05.787Z,98.59
2023-01-11T06:23:34.231Z,98.77
2023-01-11T06:26:02.836Z,97.85
2023-01-11T06:28:29.550Z,98.16
2023-01-11T06:30:57.642Z,97.58
2023-01-11T06:33:25.671Z,98.56
2023-01-11T06:35:52.590Z,98.06
2023-01-11T06:38:21.819Z,98.05
2023-01-11T06:41:08.399Z,97.76
2023-01-11T06:43:37.250Z,97.83
2023-01-11T06:46:04.135Z,98.58
2023-01-11T06:48:30.619Z,98.85
2023-01-11T06:50:58.426Z,97.55
2023-01-11T06:53:28.402Z,98.87
2023-01-11T06:55:57.180Z,98.86
2023-01-11T06:58:25.034Z,99.27
2023-01-11T07:00:53.186Z,97.84
2023-01-11T07:03:24.145Z,98.50
2023-01-11T07:05:52.305Z,98.63
2023-01-11T07:08:19.230Z,98.82
2023-01-11T07:10:46.176Z,98.08
2023-01-11T07:13:12.634Z,98.60
2023-01-11T07:15:39.150Z,97.85
2023-01-11T07:18:05.666Z,97.89
2023-01-11T07:20:31.999Z,98.73
2023-01-11T07:22:59.508Z,98.77
2023-01-11T07:25:27.741Z,99.11
2023-01-11T07:27:59.410Z,99.65
2023-01-11T07:30:27.580Z,98.76
2023-01-11T07:32:54.475Z,99.32
2023-01-11T07:35:21.246Z,99.07
2023-01-11T07:37:47.682Z,98.63
2023-01-11T07:40:16.255Z,99.73
2023-01-11T07:43:11.952Z,98.50
2023-01-11T07:45:45.641Z,98.63
2023-01-11T07:48:13.027Z,100.00
2023-01-11T07:50:42.830Z,99.92
2023-01-11T07:53:10.685Z,99.92
2023-01-11T07:55:38.713Z,99.92
2023-01-11T07:58:06.507Z,99.79
2023-01-11T08:00:32.940Z,99.76
2023-01-11T08:03:00.763Z,98.87
2023-01-11T08:05:27.272Z,99.14
2023-01-11T08:07:53.746Z,99.04
2023-01-11T08:10:20.199Z,98.88
2023-01-11T08:13:07.192Z,99.79
2023-01-11T08:15:36.607Z,99.08
2023-01-11T08:18:05.605Z,99.87
2023-01-11T08:20:32.090Z,99.52
2023-01-11T08:23:02.927Z,99.75
2023-01-11T08:25:29.308Z,99.93
2023-01-11T08:27:55.682Z,99.11
2023-01-11T08:30:22.039Z,100.00
2023-01-11T08:32:48.442Z,99.23
2023-01-11T08:35:14.892Z,98.73
2023-01-11T08:37:41.285Z,99.72
2023-01-11T08:40:08.529Z,99.29
2023-01-11T08:42:35.173Z,99.21
2023-01-11T08:45:01.829Z,98.60
2023-01-11T08:47:28.379Z,98.51
2023-01-11T08:49:54.878Z,98.99
2023-01-11T08:52:21.593Z,98.38
2023-01-11T08:54:48.003Z,98.67
2023-01-11T08:57:14.369Z,98.41
2023-01-11T08:59:40.784Z,98.34
2023-01-11T09:02:07.482Z,98.40
2023-01-11T09:04:34.065Z,98.57
2023-01-11T09:07:01.591Z,98.40
2023-01-11T09:09:27.971Z,98.56
2023-01-11T09:11:56.353Z,98.41
2023-01-11T09:14:27.066Z,98.09
2023-01-11T09:16:54.555Z,98.38
2023-01-11T09:19:21.877Z,98.20
2023-01-11T09:21:48.683Z,98.01
2023-01-11T09:24:15.136Z,98.01
2023-01-11T09:26:43.368Z,98.22
2023-01-11T09:29:11.364Z,98.02
2023-01-11T09:31:37.980Z,98.38
2023-01-11T09:34:05.369Z,98.39
2023-01-11T09:36:33.275Z,98.49
2023-01-11T09:39:01.729Z,97.75
2023-01-11T09:41:41.791Z,97.98
2023-01-11T09:44:16.549Z,97.58
2023-01-11T09:46:48.136Z,97.39
2023-01-11T09:49:25.030Z,97.64
2023-01-11T09:51:53.443Z,97.91
2023-01-11T09:54:27.075Z,98.14
2023-01-11T09:57:10.431Z,98.19
2023-01-11T09:59:50.629Z,98.37
2023-01-11T10:02:35.840Z,97.61
2023-01-11T10:05:19.482Z,97.70
2023-01-11T10:18:29.669Z,97.64
2023-01-11T10:18:39.148Z,96.96
2023-01-11T10:20:30.680Z,97.71
2023-01-11T10:23:17.257Z,97.34
2023-01-11T10:25:51.333Z,96.54
2023-01-11T10:28:24.980Z,97.11
2023-01-11T10:31:08.157Z,97.34
2023-01-11T10:33:46.678Z,97.77
2023-01-11T10:37:05.676Z,97.17
2023-01-11T10:40:09.220Z,96.93
2023-01-11T10:42:46.606Z,96.46
2023-01-11T10:45:18.583Z,97.42
2023-01-11T10:48:18.646Z,96.80
2023-01-11T10:51:01.502Z,96.87
2023-01-11T10:53:43.436Z,95.64
2023-01-11T10:56:15.888Z,96.62
2023-01-11T10:59:17.827Z,96.05
2023-01-11T11:02:12.837Z,96.63
2023-01-11T11:05:01.451Z,96.07
2023-01-11T11:07:54.104Z,95.77
2023-01-11T11:10:36.473Z,95.78
2023-01-11T11:13:14.985Z,95.89
2023-01-11T11:15:56.844Z,95.45
2023-01-11T11:18:26.156Z,95.87
2023-01-11T11:20:52.488Z,95.25
2023-01-11T11:23:23.056Z,95.32
2023-01-11T11:25:55.046Z,95.76
2023-01-11T11:28:32.947Z,95.68
2023-01-11T11:31:03.062Z,95.63
2023-01-11T11:33:37.618Z,95.66
2023-01-11T11:36:09.138Z,95.95
2023-01-11T11:38:38.048Z,95.15
2023-01-11T11:41:04.528Z,95.31
2023-01-11T11:43:33.549Z,95.01
2023-01-11T11:46:18.664Z,95.16
2023-01-11T11:49:13.291Z,95.57
2023-01-11T11:51:42.845Z,95.22
2023-01-11T11:54:32.496Z,95.96
2023-01-11T11:57:12.529Z,96.27
2023-01-11T11:59:43.585Z,96.31
2023-01-11T12:02:24.085Z,95.98
2023-01-11T12:04:51.540Z,95.40
2023-01-11T12:07:24.042Z,96.10
2023-01-11T12:09:56.266Z,95.20
2023-01-11T12:12:25.890Z,95.57
2023-01-11T12:15:15.221Z,95.69
2023-01-11T12:17:42.562Z,95.88
2023-01-11T12:20:21.133Z,96.72
2023-01-11T12:22:48.651Z,96.04
2023-01-11T12:25:15.168Z,95.40
2023-01-11T12:28:02.024Z,96.16
2023-01-11T12:31:03.345Z,95.06
2023-01-11T12:33:47.565Z,95.60
2023-01-11T12:36:49.867Z,95.71
2023-01-11T12:39:38.057Z,95.07
2023-01-11T12:42:11.354Z,95.83
2023-01-11T12:44:55.357Z,95.39
2023-01-11T12:47:52.477Z,96.46
2023-01-11T12:50:25.331Z,96.16
2023-01-11T12:53:27.957Z,97.21
2023-01-11T12:56:24.142Z,96.05
2023-01-11T12:59:35.124Z,96.50
2023-01-11T13:02:07.492Z,97.42
2023-01-11T13:04:52.770Z,97.44
2023-01-11T13:08:07.254Z,97.39
2023-01-11T13:10:42.979Z,96.82
2023-01-11T13:13:19.052Z,97.56
2023-01-11T13:16:14.496Z,96.77
2023-01-11T13:18:51.016Z,97.06
2023-01-11T13:21:40.944Z,97.11
2023-01-11T13:24:15.541Z,97.27
2023-01-11T13:26:46.854Z,97.62
2023-01-11T13:29:37.325Z,98.22
2023-01-11T13:32:08.749Z,97.13
2023-01-11T13:34:41.355Z,98.46
2023-01-11T13:37:18.919Z,97.66
2023-01-11T13:39:54.660Z,97.37
2023-01-11T13:42:25.134Z,98.44
2023-01-11T13:45:00.607Z,98.22
2023-01-11T13:47:30.490Z,98.97
2023-01-11T13:50:00.563Z,98.66
2023-01-11T13:52:44.330Z,98.56
2023-01-11T13:55:40.659Z,97.89
2023-01-11T13:58:16.626Z,98.18
2023-01-11T14:00:50.038Z,98.36
2023-01-11T14:03:35.127Z,98.58
2023-01-11T14:06:32.054Z,97.96
2023-01-11T14:09:14.705Z,98.65
2023-01-11T14:12:03.061Z,98.74
2023-01-11T14:14:37.608Z,98.52
2023-01-11T14:17:32.270Z,98.59
2023-01-11T14:20:26.142Z,98.06
2023-01-11T14:23:13.292Z,98.49
2023-01-11T14:25:51.653Z,97.90
2023-01-11T14:28:50.973Z,98.14
2023-01-11T14:31:50.569Z,98.57
2023-01-11T14:34:47.984Z,98.26
2023-01-11T14:37:34.610Z,99.00
2023-01-11T14:40:20.088Z,98.71
2023-01-11T14:43:22.629Z,98.82
2023-01-11T14:46:09.661Z,98.36
2023-01-11T14:49:20.797Z,98.86
2023-01-11T14:51:56.276Z,99.17
2023-01-11T14:54:27.834Z,98.33
2023-01-11T14:56:58.548Z,98.63
2023-01-11T14:59:30.993Z,98.29
2023-01-11T15:02:03.713Z,98.23
2023-01-11T15:04:38.566Z,98.64
2023-01-11T15:07:22.502Z,98.37
2023-01-11T15:09:53.439Z,98.61
2023-01-11T15:12:23.056Z,97.85
2023-01-11T15:15:08.191Z,97.75
2023-01-11T15:17:53.421Z,98.50
2023-01-11T15:20:22.047Z,98.36
2023-01-11T15:23:01.374Z,98.76
2023-01-11T15:25:33.514Z,98.47
2023-01-11T15:28:04.514Z,98.27
2023-01-11T15:30:30.859Z,99.21
2023-01-11T15:33:19.253Z,98.54
2023-01-11T15:35:54.952Z,98.07
2023-01-11T15:38:52.129Z,99.10
2023-01-11T15:41:48.901Z,98.19
2023-01-11T15:44:42.584Z,99.03
2023-01-11T15:47:42.693Z,98.73
2023-01-11T15:50:35.721Z,98.47
2023-01-11T15:53:43.605Z,98.85
2023-01-11T15:56:13.018Z,98.99
2023-01-11T15:59:12.017Z,98.77
2023-01-11T16:02:04.102Z,98.38
2023-01-11T16:04:40.777Z,98.88
2023-01-11T16:07:34.019Z,98.67
2023-01-11T16:10:07.627Z,98.98
2023-01-11T16:13:00.597Z,99.02
2023-01-11T16:16:03.997Z,98.75
2023-01-11T16:18:38.784Z,98.61
2023-01-11T16:21:12.644Z,98.84
2023-01-11T16:23:39.845Z,98.75
2023-01-11T16:26:07.593Z,99.28
2023-01-11T16:28:34.613Z,99.51
2023-01-11T16:31:04.577Z,99.14
2023-01-11T16:33:34.596Z,98.89
2023-01-11T16:36:38.485Z,99.73
2023-01-11T16:39:11.697Z,99.59
2023-01-11T16:41:46.331Z,99.15
2023-01-11T16:44:41.546Z,99.37
2023-01-11T16:47:14.636Z,99.39
2023-01-11T16:49:43.284Z,99.34
2023-01-11T16:52:34.723Z,99.89
2023-01-11T16:55:03.487Z,99.95
2023-01-11T16:57:37.130Z,99.60
2023-01-11T17:00:18.810Z,100.00
2023-01-11T17:02:48.785Z,99.90
2023-01-11T17:05:23.831Z,100.00
2023-01-11T17:07:50.496Z,99.75
2023-01-11T17:10:24.979Z,99.77
2023-01-11T17:13:28.717Z,99.93
2023-01-11T17:16:02.356Z,100.00
2023-01-11T17:18:28.829Z,99.93
2023-01-11T17:20:55.293Z,100.00
2023-01-11T17:23:21.744Z,99.79
2023-01-11T17:25:55.848Z,99.96
2023-01-11T17:28:22.360Z,100.00
2023-01-11T17:30:52.282Z,99.89
2023-01-11T17:33:29.021Z,99.99
2023-01-11T17:35:55.676Z,99.50
2023-01-11T17:38:25.671Z,99.51
2023-01-11T17:40:56.603Z,100.00
2023-01-11T17:43:48.676Z,99.64
2023-01-11T17:46:24.426Z,99.58
2023-01-11T17:48:56.810Z,99.53
2023-01-11T17:51:29.029Z,100.00
2023-01-11T17:53:55.563Z,100.00
2023-01-11T17:56:37.841Z,100.00
2023-01-11T17:59:36.610Z,100.00
2023-01-11T18:02:11.919Z,100.00
2023-01-11T18:04:38.685Z,100.00
2023-01-11T18:07:08.879Z,100.00
2023-01-11T18:09:45.803Z,100.00
2023-01-11T18:12:14.579Z,100.00
2023-01-11T18:15:02.766Z,100.00
2023-01-11T18:17:32.370Z,100.00
2023-01-11T18:20:00.392Z,100.00
2023-01-11T18:22:37.085Z,100.00
2023-01-11T18:25:23.330Z,100.00
2023-01-11T18:27:50.342Z,100.00
2023-01-11T18:30:32.235Z,100.00
2023-01-11T18:33:01.888Z,100.00
2023-01-11T18:35:29.542Z,100.00
2023-01-11T18:37:56.550Z,100.00
2023-01-11T18:40:23.086Z,100.00
2023-01-11T18:42:52.725Z,100.00
2023-01-11T18:45:20.167Z,100.00
2023-01-11T18:47:46.541Z,99.95
2023-01-11T18:50:13.990Z,100.00
2023-01-11T18:52:40.727Z,100.00
2023-01-11T18:55:09.953Z,100.00
2023-01-11T18:57:36.405Z,98.99
2023-01-11T19:00:03.958Z,99.25
2023-01-11T19:02:42.353Z,99.30
2023-01-11T19:05:14.941Z,99.33
2023-01-11T19:07:41.492Z,99.11
2023-01-11T19:10:08.476Z,99.65
2023-01-11T19:12:34.988Z,98.88
2023-01-11T19:15:01.412Z,98.63
2023-01-11T19:17:28.445Z,98.74
2023-01-11T19:19:54.856Z,98.11
2023-01-11T19:22:24.573Z,98.22
2023-01-11T19:24:53.081Z,98.39
2023-01-11T19:27:19.509Z,97.89
2023-01-11T19:29:45.925Z,97.90
2023-01-11T19:32:12.373Z,97.99
2023-01-11T19:34:39.847Z,97.92
2023-01-11T19:37:06.389Z,98.00
2023-01-11T19:39:34.169Z,97.72
2023-01-11T19:42:02.301Z,97.55
2023-01-11T19:44:38.712Z,97.82
2023-01-11T19:47:11.443Z,97.83
2023-01-11T19:49:40.122Z,97.79
2023-01-11T19:52:12.196Z,97.83
2023-01-11T19:54:42.653Z,97.89
2023-01-11T19:57:14.592Z,97.65
2023-01-11T19:59:41.333Z,97.50
2023-01-11T20:02:10.066Z,97.66
2023-01-11T20:04:37.176Z,97.44
2023-01-11T20:07:03.769Z,97.71
2023-01-11T20:09:30.166Z,97.85
2023-01-11T20:11:58.660Z,97.19
2023-01-11T20:14:26.528Z,97.03
2023-01-11T20:16:52.983Z,96.81
2023-01-11T20:19:19.313Z,97.07
2023-01-11T20:21:46.737Z,96.61
2023-01-11T20:24:13.979Z,96.11
2023-01-11T20:26:41.549Z,96.49
2023-01-11T20:29:08.000Z,96.60
2023-01-11T20:31:35.614Z,96.70
2023-01-11T20:34:11.253Z,96.90
2023-01-11T20:36:37.979Z,97.10
2023-01-11T20:39:05.293Z,97.15
2023-01-11T20:41:46.872Z,96.58
2023-01-11T20:44:24.843Z,97.06
2023-01-11T20:46:52.829Z,97.48
2023-01-11T20:49:21.443Z,97.59
2023-01-11T20:51:47.954Z,97.48
2023-01-11T20:54:14.837Z,97.54
2023-01-11T20:56:41.690Z,97.73
2023-01-11T20:59:09.206Z,97.78
2023-01-11T21:01:36.454Z,97.98
2023-01-11T21:04:06.289Z,97.93
2023-01-11T21:06:34.155Z,98.12
2023-01-11T21:09:01.829Z,98.46
2023-01-11T21:11:30.660Z,97.81
2023-01-11T21:13:59.212Z,97.80
2023-01-11T21:16:27.962Z,97.85
2023-01-11T21:19:02.448Z,98.03
2023-01-11T21:21:31.112Z,98.07
2023-01-11T21:23:59.791Z,98.31
2023-01-11T21:26:27.396Z,98.05
2023-01-11T21:28:59.225Z,98.14
2023-01-11T21:31:33.682Z,97.84
2023-01-11T21:34:00.398Z,98.05
2023-01-11T21:36:28.841Z,97.47
2023-01-11T21:38:56.708Z,97.27
2023-01-11T21:41:44.899Z,96.74
2023-01-11T21:44:12.973Z,96.11
2023-01-11T21:46:40.572Z,96.27
2023-01-11T21:49:07.555Z,96.47
2023-01-11T21:51:34.537Z,96.36
2023-01-11T21:54:04.676Z,95.71
2023-01-11T21:56:31.121Z,95.95
2023-01-11T21:58:57.504Z,96.20
2023-01-11T22:01:23.903Z,95.88
2023-01-11T22:03:50.363Z,96.06
2023-01-11T22:06:17.169Z,96.25
2023-01-11T22:08:45.991Z,96.26
2023-01-11T22:11:14.479Z,95.76
2023-01-11T22:13:41.677Z,95.92
2023-01-11T22:16:12.044Z,96.51
2023-01-11T22:18:40.523Z,96.30
2023-01-11T22:21:24.771Z,96.35
2023-01-11T22:23:56.335Z,96.68
2023-01-11T22:26:23.876Z,96.54
2023-01-11T22:29:12.133Z,96.19
2023-01-11T22:31:39.799Z,96.19
2023-01-11T22:34:06.826Z,95.51
2023-01-11T22:36:33.496Z,95.54
2023-01-11T22:38:59.852Z,95.66
2023-01-11T22:41:26.467Z,95.42
2023-01-11T22:43:54.354Z,95.33
2023-01-11T22:46:23.344Z,95.51
2023-01-11T22:48:50.615Z,95.65
2023-01-11T22:51:18.786Z,95.80
2023-01-11T22:53:47.016Z,95.80
2023-01-11T22:56:15.489Z,95.84
2023-01-11T22:58:41.889Z,95.14
2023-01-11T23:01:17.019Z,93.41
2023-01-11T23:03:45.193Z,93.24
2023-01-11T23:06:12.149Z,93.66
2023-01-11T23:08:43.097Z,93.96
2023-01-11T23:11:35.652Z,93.92
2023-01-11T23:14:10.272Z,94.01
2023-01-11T23:16:37.451Z,94.05
2023-01-11T23:19:05.295Z,93.57
2023-01-11T23:21:31.701Z,93.55
2023-01-11T23:24:00.411Z,93.84
2023-01-11T23:26:26.792Z,94.06
2023-01-11T23:28:53.209Z,94.28
2023-01-11T23:31:22.541Z,94.48
2023-01-11T23:33:51.502Z,94.31
2023-01-11T23:36:20.509Z,94.56
2023-01-11T23:38:47.510Z,94.50
2023-01-11T23:41:34.779Z,94.38
2023-01-11T23:44:02.190Z,93.90
2023-01-11T23:46:47.029Z,93.85
2023-01-11T23:49:16.150Z,94.41
2023-01-11T23:51:42.955Z,94.30
2023-01-11T23:54:10.010Z,94.54
2023-01-11T23:56:37.133Z,93.80
2023-01-11T23:59:04.521Z,93.60
